Time;durP1;ratioP1;P1;durP2;ratioP2;P2;SDS_P1;SDS_P2;PMS_P1;PMS_P2;Temp;Humidity;BMP_temperature;BMP_pressure;BME280_temperature;BME280_humidity;BME280_pressure;Samples;Min_cycle;Max_cycle;Signal;HPM_P1;HPM_P2
2023/12/27 00:00:37;;;;;;;364.50;168.90;;;4.50;99.90;;;;;;5016324;28;20056;-56
2023/12/27 00:03:04;;;;;;;378.65;167.18;;;4.40;99.90;;;;;;5016622;28;20080;-56
2023/12/27 00:05:30;;;;;;;329.90;146.85;;;4.40;99.90;;;;;;5016486;28;20048;-56
2023/12/27 00:07:56;;;;;;;586.78;244.32;;;4.40;99.90;;;;;;5016163;28;20097;-56
2023/12/27 00:10:22;;;;;;;433.30;177.23;;;4.30;99.90;;;;;;5016480;28;20088;-56
2023/12/27 00:12:48;;;;;;;350.73;156.02;;;4.30;99.90;;;;;;5016371;28;20038;-56
2023/12/27 00:15:14;;;;;;;354.15;156.50;;;4.30;99.90;;;;;;5016247;28;20033;-56
2023/12/27 00:17:39;;;;;;;313.08;141.43;;;4.30;99.90;;;;;;5016186;28;20040;-56
2023/12/27 00:20:06;;;;;;;361.33;155.10;;;4.40;99.90;;;;;;5016196;28;20092;-56
2023/12/27 00:22:32;;;;;;;434.45;181.02;;;4.40;99.90;;;;;;5016040;28;20422;-56
2023/12/27 00:24:57;;;;;;;481.02;206.60;;;4.30;99.90;;;;;;5016182;28;20105;-56
2023/12/27 00:27:23;;;;;;;308.58;136.27;;;4.20;99.90;;;;;;5016252;28;20459;-56
2023/12/27 00:29:49;;;;;;;295.38;133.43;;;4.20;99.90;;;;;;5015945;28;20026;-56
2023/12/27 00:32:15;;;;;;;255.25;120.78;;;4.10;99.90;;;;;;5016008;28;20041;-55
2023/12/27 00:34:41;;;;;;;274.45;128.38;;;4.20;99.90;;;;;;5016045;28;20021;-56
2023/12/27 00:37:07;;;;;;;260.17;123.30;;;4.20;99.90;;;;;;5015659;28;20029;-56
2023/12/27 00:39:34;;;;;;;277.20;128.93;;;4.30;99.90;;;;;;5014672;28;20120;-56
2023/12/27 00:42:00;;;;;;;245.82;117.07;;;4.40;99.90;;;;;;5014840;28;20392;-56
2023/12/27 00:44:25;;;;;;;267.38;122.82;;;4.40;99.90;;;;;;5015840;28;20022;-55
2023/12/27 00:46:51;;;;;;;251.15;117.82;;;4.50;99.90;;;;;;5015968;28;20018;-56
2023/12/27 00:49:18;;;;;;;305.25;137.98;;;4.50;99.90;;;;;;5014434;28;20402;-56
2023/12/27 00:51:44;;;;;;;271.02;122.75;;;4.60;99.90;;;;;;5015639;28;20022;-56
2023/12/27 00:54:10;;;;;;;266.35;121.15;;;4.50;99.90;;;;;;5014624;28;20054;-56
2023/12/27 00:56:36;;;;;;;251.75;116.82;;;4.40;99.90;;;;;;5015929;28;20387;-56
2023/12/27 00:59:02;;;;;;;244.32;113.68;;;4.30;99.90;;;;;;5015647;28;20026;-56
2023/12/27 01:01:31;;;;;;;218.20;106.70;;;4.20;99.90;;;;;;5015500;28;20056;-56
2023/12/27 01:03:57;;;;;;;221.57;106.90;;;4.10;99.90;;;;;;5016824;28;20088;-56
2023/12/27 01:06:24;;;;;;;227.20;108.65;;;4.00;99.90;;;;;;5022064;28;20032;-56
2023/12/27 01:08:50;;;;;;;214.18;102.40;;;4.00;99.90;;;;;;5020936;28;20029;-56
2023/12/27 01:11:17;;;;;;;277.65;131.05;;;4.00;99.90;;;;;;5020964;28;20473;-56
2023/12/27 01:13:44;;;;;;;283.80;134.43;;;4.10;99.90;;;;;;5022149;28;20102;-56
2023/12/27 01:16:10;;;;;;;258.75;122.97;;;4.00;99.90;;;;;;5020703;28;20056;-56
2023/12/27 01:18:36;;;;;;;260.88;123.57;;;3.90;99.90;;;;;;5020684;28;20495;-56
2023/12/27 01:21:02;;;;;;;266.83;128.75;;;3.80;99.90;;;;;;5022362;28;20052;-56
2023/12/27 01:23:28;;;;;;;256.25;125.07;;;3.90;99.90;;;;;;5021858;28;20379;-56
2023/12/27 01:25:54;;;;;;;279.70;134.48;;;4.00;99.90;;;;;;5022087;28;20547;-56
2023/12/27 01:28:20;;;;;;;266.35;125.65;;;4.00;99.90;;;;;;5022001;28;20065;-56
2023/12/27 01:30:46;;;;;;;245.00;117.03;;;3.80;99.90;;;;;;5020480;28;20030;-56
2023/12/27 01:33:12;;;;;;;271.00;126.60;;;3.70;99.90;;;;;;5021820;28;20562;-56
2023/12/27 01:35:38;;;;;;;244.77;120.15;;;3.60;99.90;;;;;;5020707;28;20061;-56
2023/12/27 01:38:03;;;;;;;249.27;117.90;;;3.50;99.90;;;;;;5020311;28;20034;-56
2023/12/27 01:40:30;;;;;;;240.15;112.40;;;3.40;99.90;;;;;;5021866;28;20030;-55
2023/12/27 01:42:56;;;;;;;230.32;109.97;;;3.60;99.90;;;;;;5020595;28;20471;-56
2023/12/27 01:45:22;;;;;;;234.77;111.55;;;3.60;99.90;;;;;;5020407;28;20030;-56
2023/12/27 01:47:48;;;;;;;200.85;94.45;;;3.60;99.90;;;;;;5021700;28;20022;-56
2023/12/27 01:50:15;;;;;;;199.77;95.15;;;3.60;99.90;;;;;;5021926;28;20037;-56
2023/12/27 01:52:41;;;;;;;172.10;84.85;;;3.50;99.90;;;;;;5021615;28;20560;-56
2023/12/27 01:55:09;;;;;;;171.98;84.35;;;3.40;99.90;;;;;;5020602;28;20038;-56
2023/12/27 01:57:40;;;;;;;270.70;125.05;;;3.30;99.90;;;;;;5020528;28;20025;-56
2023/12/27 02:00:08;;;;;;;200.93;92.93;;;3.20;99.90;;;;;;5020152;28;20464;-56
2023/12/27 02:02:39;;;;;;;189.65;89.10;;;3.30;99.90;;;;;;5021625;28;20042;-56
2023/12/27 02:05:06;;;;;;;194.27;92.43;;;3.30;99.90;;;;;;5020493;28;20360;-56
2023/12/27 02:07:34;;;;;;;174.82;86.35;;;3.20;99.90;;;;;;5020202;28;20026;-56
2023/12/27 02:10:00;;;;;;;179.55;87.57;;;3.10;99.90;;;;;;5004023;28;20058;-56
2023/12/27 02:12:29;;;;;;;177.18;83.55;;;3.00;99.90;;;;;;5020244;28;20030;-56
2023/12/27 02:14:55;;;;;;;203.43;95.47;;;3.10;99.90;;;;;;5021482;28;20448;-56
2023/12/27 02:17:25;;;;;;;215.75;101.97;;;3.20;99.90;;;;;;5017506;28;20038;-56
2023/12/27 02:19:52;;;;;;;212.65;102.13;;;3.20;99.90;;;;;;5017003;28;20034;-56
2023/12/27 02:22:22;;;;;;;206.88;101.72;;;3.20;99.90;;;;;;5017102;28;20025;-56
2023/12/27 02:24:53;;;;;;;211.70;98.55;;;3.10;99.90;;;;;;5017150;28;20467;-56
2023/12/27 02:27:19;;;;;;;;;;;3.00;99.90;;;;;;5017439;28;20034;-56
2023/12/27 02:29:45;;;;;;;198.30;94.35;;;3.00;99.90;;;;;;5016814;28;20322;-56
2023/12/27 02:32:11;;;;;;;180.75;89.10;;;3.00;99.90;;;;;;5018304;28;20084;-56
2023/12/27 02:34:37;;;;;;;172.90;89.03;;;3.10;99.90;;;;;;5015227;28;20483;-56
2023/12/27 02:37:03;;;;;;;178.48;85.00;;;3.10;99.90;;;;;;5017446;28;20038;-56
2023/12/27 02:39:29;;;;;;;172.10;81.82;;;3.10;99.90;;;;;;5017864;28;20034;-56
2023/12/27 02:41:55;;;;;;;170.05;83.15;;;3.20;99.90;;;;;;5018185;28;20494;-56
2023/12/27 02:44:20;;;;;;;173.18;80.00;;;3.20;99.90;;;;;;5016493;28;20471;-56
2023/12/27 02:46:46;;;;;;;172.52;82.55;;;3.20;99.90;;;;;;5016473;28;20030;-56
2023/12/27 02:49:12;;;;;;;169.75;80.25;;;3.20;99.90;;;;;;5016569;28;20060;-56
2023/12/27 02:51:38;;;;;;;170.32;83.05;;;3.20;99.90;;;;;;5016326;28;20034;-56
2023/12/27 02:54:04;;;;;;;192.13;91.90;;;3.30;99.90;;;;;;5016553;28;20093;-56
2023/12/27 02:56:30;;;;;;;189.15;90.32;;;3.40;99.90;;;;;;5016313;28;20113;-56
2023/12/27 02:58:55;;;;;;;203.48;94.65;;;3.50;99.90;;;;;;5017454;28;20457;-56
2023/12/27 03:01:21;;;;;;;161.15;80.95;;;3.60;99.90;;;;;;5016255;28;20120;-56
2023/12/27 03:03:47;;;;;;;156.65;75.82;;;3.50;99.90;;;;;;5017581;28;20025;-56
2023/12/27 03:06:13;;;;;;;154.50;77.18;;;3.30;99.90;;;;;;5017276;28;20022;-56
2023/12/27 03:08:39;;;;;;;158.88;76.35;;;3.30;99.90;;;;;;5017328;28;20073;-56
2023/12/27 03:11:06;;;;;;;154.25;74.38;;;3.10;99.90;;;;;;5016232;28;20088;-56
2023/12/27 03:13:34;;;;;;;157.30;78.65;;;3.00;99.90;;;;;;5017132;28;20030;-56
2023/12/27 03:16:07;;;;;;;152.23;73.15;;;2.80;99.90;;;;;;5017184;28;20105;-56
2023/12/27 03:18:37;;;;;;;168.98;74.72;;;2.80;99.90;;;;;;5016057;28;20034;-56
2023/12/27 03:21:03;;;;;;;148.70;71.65;;;2.90;99.90;;;;;;5015683;28;20046;-56
2023/12/27 03:23:29;;;;;;;139.00;69.80;;;2.80;99.90;;;;;;5017323;28;20041;-56
2023/12/27 03:25:55;;;;;;;157.30;77.30;;;2.80;99.90;;;;;;5017170;28;20036;-56
2023/12/27 03:28:23;;;;;;;151.60;68.82;;;2.80;99.90;;;;;;5015357;28;20080;-56
2023/12/27 03:30:49;;;;;;;147.60;70.03;;;2.80;99.90;;;;;;5015864;28;20037;-56
2023/12/27 03:33:15;;;;;;;142.82;68.75;;;2.80;99.90;;;;;;5016950;28;20042;-56
2023/12/27 03:35:40;;;;;;;146.98;71.28;;;2.70;99.90;;;;;;5015604;28;20506;-56
2023/12/27 03:38:06;;;;;;;141.57;63.95;;;2.80;99.90;;;;;;5016773;28;20037;-56
2023/12/27 03:40:32;;;;;;;146.75;69.28;;;2.90;99.90;;;;;;5017100;28;20026;-56
2023/12/27 03:42:58;;;;;;;145.77;71.50;;;2.80;99.90;;;;;;5016773;28;20034;-56
2023/12/27 03:45:25;;;;;;;138.73;67.97;;;2.60;99.90;;;;;;5017023;28;20037;-56
2023/12/27 03:47:51;;;;;;;142.88;69.80;;;2.70;99.90;;;;;;5015353;28;20398;-56
2023/12/27 03:50:16;;;;;;;151.63;71.78;;;2.60;99.90;;;;;;5016541;28;20033;-56
2023/12/27 03:52:45;;;;;;;159.55;72.85;;;2.60;99.90;;;;;;5016709;28;20467;-56
2023/12/27 03:55:11;;;;;;;147.98;68.22;;;2.60;99.90;;;;;;5016714;28;20022;-56
2023/12/27 03:57:37;;;;;;;137.95;65.97;;;2.50;99.90;;;;;;5015146;28;20080;-56
2023/12/27 04:00:05;;;;;;;132.15;64.85;;;2.50;99.90;;;;;;5016571;28;20036;-56
2023/12/27 04:02:33;;;;;;;139.13;68.22;;;2.50;99.90;;;;;;5016325;28;20033;-56
2023/12/27 04:04:59;;;;;;;125.32;60.65;;;2.40;99.90;;;;;;5014991;28;20026;-56
2023/12/27 04:07:25;;;;;;;126.82;60.08;;;2.30;99.90;;;;;;5016429;28;20026;-56
2023/12/27 04:09:51;;;;;;;127.90;60.78;;;2.30;99.90;;;;;;5016471;28;20030;-56
2023/12/27 04:12:17;;;;;;;131.20;61.08;;;2.40;99.90;;;;;;5014941;28;20037;-56
2023/12/27 04:14:43;;;;;;;117.53;57.50;;;2.30;99.90;;;;;;5015106;28;20026;-56
2023/12/27 04:17:09;;;;;;;103.00;52.10;;;2.30;99.90;;;;;;5016069;28;20041;-56
2023/12/27 04:19:35;;;;;;;113.68;53.05;;;2.30;99.90;;;;;;5014678;28;20498;-56
2023/12/27 04:22:01;;;;;;;111.90;55.13;;;2.20;99.90;;;;;;5016277;28;20034;-56
2023/12/27 04:24:27;;;;;;;120.63;60.33;;;2.20;99.90;;;;;;5014971;28;20056;-56
2023/12/27 04:26:53;;;;;;;118.97;58.28;;;2.10;99.90;;;;;;5016041;28;20029;-56
2023/12/27 04:29:19;;;;;;;122.53;57.20;;;2.10;99.90;;;;;;5014776;28;20033;-56
2023/12/27 04:31:45;;;;;;;124.50;56.90;;;2.20;99.90;;;;;;5016123;28;20033;-56
2023/12/27 04:34:11;;;;;;;127.80;60.00;;;2.20;99.90;;;;;;5014644;28;20161;-56
2023/12/27 04:36:37;;;;;;;113.55;57.72;;;2.20;99.90;;;;;;5014580;28;20037;-56
2023/12/27 04:39:03;;;;;;;120.25;59.65;;;2.20;99.90;;;;;;5015492;28;20026;-56
2023/12/27 04:41:29;;;;;;;107.32;51.97;;;2.10;99.90;;;;;;5014427;28;20033;-56
2023/12/27 04:43:55;;;;;;;120.38;57.47;;;2.10;99.90;;;;;;5014661;28;20029;-56
2023/12/27 04:46:21;;;;;;;134.85;62.55;;;2.00;99.90;;;;;;5014579;28;20076;-56
2023/12/27 04:48:47;;;;;;;126.38;59.78;;;2.00;99.90;;;;;;5014245;28;20426;-56
2023/12/27 04:51:13;;;;;;;127.50;57.53;;;2.00;99.90;;;;;;5016092;28;20113;-56
2023/12/27 04:53:39;;;;;;;112.20;53.00;;;1.90;99.90;;;;;;5014331;28;20105;-56
2023/12/27 04:56:06;;;;;;;114.05;55.17;;;1.90;99.90;;;;;;5014271;28;20033;-56
2023/12/27 04:58:36;;;;;;;125.70;59.53;;;1.90;99.90;;;;;;5015799;28;20029;-56
2023/12/27 05:01:08;;;;;;;135.15;63.08;;;2.00;99.90;;;;;;5014433;28;20476;-56
2023/12/27 05:03:35;;;;;;;136.82;67.95;;;2.00;99.90;;;;;;5014107;28;20187;-56
2023/12/27 05:06:11;;;;;;;131.43;66.28;;;2.00;99.90;;;;;;5014375;28;20080;-56
2023/12/27 05:08:41;;;;;;;132.85;65.25;;;1.90;99.90;;;;;;5014281;28;20435;-56
2023/12/27 05:11:14;;;;;;;128.95;65.85;;;2.00;99.90;;;;;;5014252;28;20029;-56
2023/12/27 05:13:40;;;;;;;139.73;67.93;;;2.00;99.90;;;;;;5015494;28;20037;-56
2023/12/27 05:16:16;;;;;;;146.38;70.20;;;2.00;99.90;;;;;;5015388;28;20026;-56
2023/12/27 05:18:44;;;;;;;130.73;64.72;;;2.00;99.90;;;;;;5015431;28;20180;-56
2023/12/27 05:21:13;;;;;;;120.80;57.78;;;2.10;99.90;;;;;;5015380;28;20499;-56
2023/12/27 05:23:39;;;;;;;123.82;58.30;;;2.00;99.90;;;;;;5015529;28;20030;-56
2023/12/27 05:26:06;;;;;;;134.48;59.58;;;2.00;99.90;;;;;;5013946;28;20064;-56
2023/12/27 05:28:32;;;;;;;125.22;56.05;;;1.90;99.90;;;;;;5015492;28;20049;-56
2023/12/27 05:30:58;;;;;;;102.07;53.05;;;2.00;99.90;;;;;;5015731;28;20033;-56
2023/12/27 05:33:24;;;;;;;100.78;49.83;;;2.10;99.90;;;;;;5015074;28;20034;-56
2023/12/27 05:35:51;;;;;;;112.28;53.22;;;2.20;99.90;;;;;;5015376;28;20057;-56
2023/12/27 05:38:17;;;;;;;136.65;67.25;;;2.20;99.90;;;;;;5015174;28;20033;-56
2023/12/27 05:40:43;;;;;;;134.15;62.58;;;2.20;99.90;;;;;;5014977;28;20037;-56
2023/12/27 05:43:09;;;;;;;125.18;59.45;;;2.30;99.90;;;;;;5015326;28;20024;-56
2023/12/27 05:45:35;;;;;;;142.25;65.55;;;2.40;99.90;;;;;;5015228;28;20030;-56
2023/12/27 05:48:01;;;;;;;125.68;63.15;;;2.40;99.90;;;;;;5015072;28;20065;-56
2023/12/27 05:50:26;;;;;;;129.25;61.85;;;2.40;99.90;;;;;;5015199;28;20034;-56
2023/12/27 05:52:54;;;;;;;115.45;52.33;;;2.40;99.90;;;;;;5018232;28;20044;-56
2023/12/27 05:55:20;;;;;;;116.95;57.80;;;2.40;99.90;;;;;;5018591;28;20030;-56
2023/12/27 05:57:46;;;;;;;120.35;58.30;;;2.40;99.90;;;;;;5018907;28;20476;-56
2023/12/27 06:00:15;;;;;;;125.10;56.10;;;2.50;99.90;;;;;;5018769;28;20121;-56
2023/12/27 06:02:41;;;;;;;131.48;65.70;;;2.50;99.90;;;;;;5018179;28;20044;-56
2023/12/27 06:05:09;;;;;;;126.30;60.22;;;2.60;99.90;;;;;;5018686;28;20052;-56
2023/12/27 06:07:36;;;;;;;128.40;58.60;;;2.60;99.90;;;;;;5018823;28;20026;-56
2023/12/27 06:10:02;;;;;;;114.35;55.53;;;2.70;99.90;;;;;;5013847;28;20033;-56
2023/12/27 06:12:28;;;;;;;114.95;56.00;;;2.70;99.90;;;;;;4994862;28;20121;-56
2023/12/27 06:14:54;;;;;;;131.95;62.53;;;2.70;99.90;;;;;;4997999;28;20058;-56
2023/12/27 06:17:20;;;;;;;131.32;58.50;;;2.70;99.90;;;;;;4996913;28;20542;-56
2023/12/27 06:19:46;;;;;;;120.50;63.30;;;2.90;99.90;;;;;;4997790;28;20380;-56
2023/12/27 06:22:11;;;;;;;144.57;73.70;;;3.00;99.90;;;;;;4998549;28;20034;-56
2023/12/27 06:24:37;;;;;;;164.20;80.63;;;3.10;99.90;;;;;;4996842;28;20064;-56
2023/12/27 06:27:06;;;;;;;171.68;82.65;;;3.20;99.90;;;;;;4998596;28;20027;-56
2023/12/27 06:29:33;;;;;;;188.80;90.95;;;3.20;99.90;;;;;;4998409;28;20089;-56
2023/12/27 06:31:59;;;;;;;188.23;91.53;;;3.30;99.90;;;;;;4998278;28;20404;-56
2023/12/27 06:34:25;;;;;;;199.20;93.65;;;3.30;99.90;;;;;;4996299;28;20041;-56
2023/12/27 06:36:51;;;;;;;186.52;89.40;;;3.40;99.90;;;;;;4998309;28;20026;-56
2023/12/27 06:39:17;;;;;;;180.07;86.85;;;3.40;99.90;;;;;;4997453;28;20026;-56
2023/12/27 06:41:43;;;;;;;182.52;76.72;;;3.60;99.90;;;;;;4998240;28;20101;-56
2023/12/27 06:44:09;;;;;;;159.98;74.88;;;3.60;99.90;;;;;;4993922;28;20292;-56
2023/12/27 06:46:35;;;;;;;159.68;72.30;;;3.70;99.90;;;;;;4997219;28;20022;-56
2023/12/27 06:49:01;;;;;;;164.30;73.15;;;3.70;99.90;;;;;;4990453;28;20491;-56
2023/12/27 06:51:27;;;;;;;152.20;67.80;;;3.70;99.90;;;;;;4994190;28;20418;-56
2023/12/27 06:53:53;;;;;;;157.60;70.90;;;3.60;99.90;;;;;;4997738;28;20045;-56
2023/12/27 06:56:19;;;;;;;170.73;73.40;;;3.70;99.90;;;;;;4993760;28;20046;-56
2023/12/27 06:58:44;;;;;;;147.45;70.32;;;3.80;99.90;;;;;;4996668;28;20042;-56
2023/12/27 07:01:11;;;;;;;163.60;74.45;;;3.80;99.90;;;;;;4991918;28;20350;-56
2023/12/27 07:03:38;;;;;;;204.20;93.40;;;3.90;99.90;;;;;;4997727;28;20034;-56
2023/12/27 07:06:04;;;;;;;248.90;108.32;;;3.90;99.90;;;;;;4997903;28;20046;-56
2023/12/27 07:08:31;;;;;;;174.00;76.97;;;4.00;99.90;;;;;;4997639;28;20022;-56
2023/12/27 07:10:56;;;;;;;150.20;70.22;;;4.00;99.90;;;;;;4997591;28;20399;-56
2023/12/27 07:13:22;;;;;;;150.40;67.80;;;4.10;99.90;;;;;;4997388;28;20161;-56
2023/12/27 07:15:48;;;;;;;158.35;72.55;;;4.20;99.90;;;;;;4997131;28;20030;-56
2023/12/27 07:18:14;;;;;;;147.45;72.72;;;4.20;99.90;;;;;;4997177;28;20077;-56
2023/12/27 07:20:40;;;;;;;160.13;73.03;;;4.20;99.90;;;;;;4997794;28;20154;-56
2023/12/27 07:23:06;;;;;;;161.23;70.18;;;4.30;99.90;;;;;;4997505;28;20030;-56
2023/12/27 07:25:32;;;;;;;155.57;66.00;;;4.40;99.90;;;;;;4996612;28;20089;-56
2023/12/27 07:27:58;;;;;;;148.32;68.20;;;4.40;99.90;;;;;;5003542;28;20522;-56
2023/12/27 07:30:24;;;;;;;162.93;66.68;;;4.30;99.90;;;;;;5016702;28;20050;-56
2023/12/27 07:32:49;;;;;;;159.75;68.47;;;4.30;99.90;;;;;;5016816;28;20111;-56
2023/12/27 07:35:15;;;;;;;174.77;72.57;;;4.40;99.90;;;;;;5016965;28;20030;-56
2023/12/27 07:37:42;;;;;;;169.40;73.70;;;4.50;99.90;;;;;;4988054;28;20027;-56
2023/12/27 07:40:09;;;;;;;156.55;72.72;;;4.50;99.90;;;;;;5015231;28;20022;-56
2023/12/27 07:42:35;;;;;;;182.18;70.45;;;4.60;99.90;;;;;;5010546;28;20488;-56
2023/12/27 07:45:01;;;;;;;167.85;73.47;;;4.50;99.90;;;;;;4997349;28;20431;-56
2023/12/27 07:47:27;;;;;;;170.60;70.70;;;4.50;99.90;;;;;;4997364;28;20054;-56
2023/12/27 07:49:54;;;;;;;147.13;64.13;;;4.60;99.90;;;;;;4997659;28;20032;-56
2023/12/27 07:52:20;;;;;;;148.73;65.78;;;4.60;99.90;;;;;;4997171;28;20065;-56
2023/12/27 07:54:45;;;;;;;130.30;62.35;;;4.70;99.90;;;;;;5003255;28;20041;-56
2023/12/27 07:57:11;;;;;;;161.93;78.95;;;4.90;99.90;;;;;;5017103;28;20463;-56
2023/12/27 07:59:37;;;;;;;198.40;93.60;;;4.90;99.90;;;;;;4999426;28;20034;-56
2023/12/27 08:02:03;;;;;;;166.27;80.05;;;4.90;99.90;;;;;;4995674;28;20474;-56
2023/12/27 08:04:29;;;;;;;183.13;88.00;;;5.00;99.90;;;;;;4996307;28;20034;-56
2023/12/27 08:06:55;;;;;;;176.23;82.75;;;5.10;99.90;;;;;;4996312;28;20049;-56
2023/12/27 08:09:22;;;;;;;164.00;82.35;;;5.10;99.90;;;;;;4997018;28;20368;-56
2023/12/27 08:11:48;;;;;;;171.20;79.63;;;5.30;99.90;;;;;;4996941;28;20030;-56
2023/12/27 08:14:14;;;;;;;176.60;83.32;;;5.50;99.90;;;;;;4990802;28;20038;-56
2023/12/27 08:16:40;;;;;;;177.30;85.00;;;5.50;99.90;;;;;;5010148;28;20033;-56
2023/12/27 08:19:06;;;;;;;195.45;89.53;;;5.50;99.90;;;;;;5003869;28;20041;-56
2023/12/27 08:21:32;;;;;;;188.85;89.28;;;5.50;99.90;;;;;;5003743;28;20502;-56
2023/12/27 08:23:57;;;;;;;184.68;91.25;;;5.50;99.90;;;;;;4996446;28;20023;-56
2023/12/27 08:26:23;;;;;;;185.88;90.75;;;5.60;99.90;;;;;;4996462;28;20026;-56
2023/12/27 08:28:49;;;;;;;187.38;89.10;;;5.70;99.90;;;;;;4996188;28;20117;-56
2023/12/27 08:31:16;;;;;;;179.20;89.28;;;5.90;99.90;;;;;;4992190;28;20030;-56
2023/12/27 08:33:41;;;;;;;190.43;87.47;;;6.00;99.90;;;;;;4997340;28;20145;-56
2023/12/27 08:36:08;;;;;;;201.10;97.20;;;6.10;99.90;;;;;;4993960;28;20037;-56
2023/12/27 08:38:34;;;;;;;212.25;98.38;;;6.20;99.90;;;;;;4995011;28;20034;-56
2023/12/27 08:41:02;;;;;;;202.27;96.43;;;6.30;99.90;;;;;;4995954;28;20034;-56
2023/12/27 08:43:29;;;;;;;224.07;104.93;;;6.30;99.90;;;;;;4996454;28;20022;-56
2023/12/27 08:45:56;;;;;;;199.10;96.07;;;6.30;99.90;;;;;;4996233;28;20100;-56
2023/12/27 08:48:22;;;;;;;202.00;99.00;;;6.40;99.90;;;;;;4995189;28;20022;-56
2023/12/27 08:50:48;;;;;;;232.70;105.85;;;6.50;99.90;;;;;;4990234;28;20034;-56
2023/12/27 08:53:15;;;;;;;240.32;117.03;;;6.50;99.90;;;;;;4983738;28;20469;-56
2023/12/27 08:55:40;;;;;;;260.58;128.90;;;6.50;99.90;;;;;;4976722;28;20097;-56
2023/12/27 08:58:09;;;;;;;268.98;128.15;;;6.60;99.90;;;;;;4986787;28;20034;-57
2023/12/27 09:00:35;;;;;;;269.65;130.05;;;6.70;99.90;;;;;;4994687;28;20022;-56
2023/12/27 09:03:01;;;;;;;285.23;134.70;;;6.80;99.90;;;;;;4994537;28;20030;-57
2023/12/27 09:05:27;;;;;;;289.48;134.88;;;6.90;99.90;;;;;;4996228;28;20062;-56
2023/12/27 09:07:52;;;;;;;266.88;134.52;;;7.00;99.90;;;;;;4997723;28;20050;-56
2023/12/27 09:10:18;;;;;;;290.10;135.93;;;7.00;99.90;;;;;;4996050;28;20114;-56
2023/12/27 09:12:44;;;;;;;260.52;129.50;;;7.00;99.90;;;;;;4996247;28;20069;-56
2023/12/27 09:15:11;;;;;;;262.95;126.07;;;7.10;99.90;;;;;;4995546;28;20389;-56
2023/12/27 09:17:37;;;;;;;290.13;137.73;;;7.20;99.90;;;;;;4996268;28;20038;-56
2023/12/27 09:20:07;;;;;;;267.45;135.98;;;7.30;99.90;;;;;;4995379;28;20026;-56
2023/12/27 09:22:33;;;;;;;256.08;131.23;;;7.30;99.90;;;;;;4995958;28;20031;-56
2023/12/27 09:24:58;;;;;;;275.35;137.95;;;7.40;99.90;;;;;;4990659;28;20073;-56
2023/12/27 09:27:27;;;;;;;298.48;144.05;;;7.50;99.90;;;;;;4992314;28;20042;-56
2023/12/27 09:29:53;;;;;;;294.83;146.10;;;7.50;99.90;;;;;;4999241;28;20034;-56
2023/12/27 09:32:19;;;;;;;287.52;136.75;;;7.60;99.90;;;;;;4990815;28;20061;-56
2023/12/27 09:34:45;;;;;;;279.08;143.23;;;7.80;99.90;;;;;;4982676;28;20499;-56
2023/12/27 09:37:11;;;;;;;296.00;138.90;;;8.00;99.90;;;;;;4979573;28;20037;-56
2023/12/27 09:39:37;;;;;;;301.50;142.50;;;8.10;99.90;;;;;;4981717;28;20038;-57
2023/12/27 09:42:04;;;;;;;285.98;139.32;;;8.30;99.90;;;;;;4999306;28;20056;-56
2023/12/27 09:44:32;;;;;;;259.70;130.52;;;8.40;99.90;;;;;;4999050;28;20379;-56
2023/12/27 09:47:00;;;;;;;257.67;125.72;;;8.50;99.90;;;;;;4999336;28;20419;-57
2023/12/27 09:49:27;;;;;;;244.43;125.68;;;8.60;99.90;;;;;;4999395;28;20077;-57
2023/12/27 09:51:55;;;;;;;220.88;113.10;;;8.80;99.90;;;;;;4998804;28;20054;-57
2023/12/27 09:54:21;;;;;;;216.98;108.30;;;9.00;99.90;;;;;;4999077;28;20026;-57
2023/12/27 09:56:47;;;;;;;214.70;106.60;;;9.20;99.90;;;;;;4999083;28;20490;-57
2023/12/27 09:59:26;;;;;;;224.60;113.20;;;9.30;99.90;;;;;;4999002;28;20049;-57
2023/12/27 10:02:02;;;;;;;230.90;124.75;;;9.40;99.90;;;;;;4999026;28;20026;-57
2023/12/27 10:05:23;;;;;;;239.45;123.93;;;9.40;99.90;;;;;;4996184;28;20080;-57
2023/12/27 10:07:50;;;;;;;239.15;125.72;;;9.70;99.90;;;;;;4974435;28;20423;-57
2023/12/27 10:10:18;;;;;;;247.98;128.25;;;9.80;99.90;;;;;;4976677;28;20066;-57
2023/12/27 10:12:44;;;;;;;239.43;124.75;;;10.00;99.90;;;;;;4976485;28;20031;-57
2023/12/27 10:15:12;;;;;;;215.98;111.43;;;10.00;99.90;;;;;;4965353;28;20156;-57
2023/12/27 10:17:38;;;;;;;200.52;104.05;;;10.10;99.90;;;;;;4976752;28;20042;-57
2023/12/27 10:20:06;;;;;;;209.77;111.45;;;10.20;99.90;;;;;;4976008;28;20034;-57
2023/12/27 10:22:32;;;;;;;235.73;117.10;;;10.20;99.90;;;;;;4976560;28;20409;-57
2023/12/27 10:24:59;;;;;;;234.93;113.93;;;10.30;99.90;;;;;;4974564;28;20031;-57
2023/12/27 10:27:30;;;;;;;194.23;99.97;;;10.30;99.90;;;;;;4975375;28;20046;-57
2023/12/27 10:29:56;;;;;;;167.02;86.40;;;10.40;99.90;;;;;;4974361;28;20070;-57
2023/12/27 10:32:22;;;;;;;173.68;87.97;;;10.60;99.90;;;;;;4976024;28;20062;-57
2023/12/27 10:34:49;;;;;;;145.57;80.00;;;10.70;99.90;;;;;;4976500;28;20043;-57
2023/12/27 10:37:16;;;;;;;150.88;75.55;;;10.80;99.90;;;;;;4974901;28;20118;-57
2023/12/27 10:39:46;;;;;;;148.30;76.65;;;10.80;99.90;;;;;;4973355;28;20031;-57
2023/12/27 10:42:17;;;;;;;161.27;81.05;;;11.10;99.90;;;;;;4981058;28;20068;-57
2023/12/27 10:44:49;;;;;;;151.98;87.13;;;11.20;99.90;;;;;;4979119;28;20034;-57
2023/12/27 10:47:19;;;;;;;170.98;93.57;;;11.40;99.90;;;;;;4978539;28;20310;-57
2023/12/27 10:49:47;;;;;;;180.52;95.20;;;11.30;99.70;;;;;;4978306;28;20076;-57
2023/12/27 10:52:16;;;;;;;207.43;106.55;;;11.40;99.90;;;;;;4978310;28;20369;-57
2023/12/27 10:54:47;;;;;;;209.50;113.38;;;11.50;99.90;;;;;;4990623;28;20472;-57
2023/12/27 10:57:19;;;;;;;197.55;108.22;;;11.00;99.90;;;;;;4991809;28;20032;-57
2023/12/27 10:59:47;;;;;;;216.27;102.07;;;10.80;99.90;;;;;;4997738;28;20117;-57
2023/12/27 11:02:13;;;;;;;203.52;101.95;;;10.80;99.90;;;;;;4998327;28;20476;-57
2023/12/27 11:04:42;;;;;;;199.88;100.35;;;11.00;99.90;;;;;;4997233;28;20053;-57
2023/12/27 11:07:09;;;;;;;206.82;111.30;;;11.20;99.90;;;;;;4992629;28;20564;-57
2023/12/27 11:09:38;;;;;;;213.63;107.93;;;11.30;99.60;;;;;;4988411;28;20030;-57
2023/12/27 11:12:07;;;;;;;204.35;107.55;;;11.50;99.70;;;;;;4997821;28;20027;-57
2023/12/27 11:14:36;;;;;;;203.55;105.20;;;11.40;99.50;;;;;;4996969;28;20504;-57
2023/12/27 11:17:06;;;;;;;195.80;98.55;;;11.50;99.60;;;;;;4997688;28;20034;-57
2023/12/27 11:19:34;;;;;;;176.73;91.37;;;11.80;99.30;;;;;;4995877;28;20026;-57
2023/12/27 11:22:00;;;;;;;177.25;84.35;;;12.60;98.20;;;;;;4997330;28;20130;-57
2023/12/27 11:24:26;;;;;;;155.38;81.53;;;13.90;96.60;;;;;;4997296;28;20066;-58
2023/12/27 11:27:00;;;;;;;170.88;83.15;;;14.90;92.50;;;;;;4997139;28;20030;-58
2023/12/27 11:29:28;;;;;;;139.93;77.93;;;15.40;91.50;;;;;;5003234;28;20411;-58
2023/12/27 11:31:55;;;;;;;145.05;75.10;;;15.80;89.50;;;;;;5017014;28;20022;-58
2023/12/27 11:34:21;;;;;;;134.55;68.57;;;16.20;84.70;;;;;;4995250;28;20045;-58
2023/12/27 11:36:49;;;;;;;123.20;63.20;;;16.90;83.20;;;;;;4995654;28;20034;-58
2023/12/27 11:39:18;;;;;;;139.40;65.82;;;16.30;79.70;;;;;;4997227;28;20113;-58
2023/12/27 11:41:44;;;;;;;112.35;57.53;;;16.30;81.20;;;;;;4989384;28;20062;-58
2023/12/27 11:44:10;;;;;;;120.75;59.50;;;16.90;77.60;;;;;;4981906;28;20027;-58
2023/12/27 11:46:35;;;;;;;119.40;57.45;;;17.20;75.90;;;;;;4989695;28;20491;-58
2023/12/27 11:49:01;;;;;;;115.22;54.20;;;17.70;73.70;;;;;;4986186;28;20414;-57
2023/12/27 11:51:38;;;;;;;124.47;55.58;;;18.40;69.50;;;;;;4997096;28;20058;-58
2023/12/27 11:54:08;;;;;;;114.05;56.05;;;18.80;66.60;;;;;;4997489;28;20034;-58
2023/12/27 11:56:39;;;;;;;116.60;59.22;;;19.10;63.70;;;;;;4995023;28;20034;-58
2023/12/27 11:59:06;;;;;;;115.40;61.50;;;19.20;61.50;;;;;;4993150;28;20053;-57
2023/12/27 12:01:36;;;;;;;105.43;57.05;;;19.50;60.90;;;;;;4996375;28;20038;-58
2023/12/27 12:04:19;;;;;;;102.95;52.55;;;19.40;59.70;;;;;;4996109;28;20022;-58
2023/12/27 12:07:07;;;;;;;121.70;54.22;;;18.70;59.40;;;;;;4996118;28;20434;-58
2023/12/27 12:09:39;;;;;;;122.03;55.38;;;19.20;58.40;;;;;;4976612;28;20034;-58
2023/12/27 12:12:10;;;;;;;113.00;55.13;;;19.40;57.80;;;;;;4977171;28;20083;-58
2023/12/27 12:14:37;;;;;;;115.32;54.08;;;19.80;57.10;;;;;;4976104;28;20106;-58
2023/12/27 12:17:06;;;;;;;116.45;53.13;;;19.90;55.70;;;;;;4977227;28;20038;-58
2023/12/27 12:19:36;;;;;;;105.18;54.30;;;20.10;54.30;;;;;;4977727;28;20035;-58
2023/12/27 12:22:03;;;;;;;103.00;53.00;;;19.90;53.50;;;;;;4977299;28;20031;-58